sensor_id;sensor_type;location;lat;lon;timestamp;P1;durP1;ratioP1;P2;durP2;ratioP2
20567;SDS011;10442;49.932;11.592;2023-11-18T00:00:15;5.60;;;3.83;;
20567;SDS011;10442;49.932;11.592;2023-11-18T00:02:44;4.03;;;3.73;;
20567;SDS011;10442;49.932;11.592;2023-11-18T00:05:12;5.80;;;5.30;;
20567;SDS011;10442;49.932;11.592;2023-11-18T00:07:39;4.20;;;3.90;;
20567;SDS011;10442;49.932;11.592;2023-11-18T00:10:07;4.97;;;4.10;;
20567;SDS011;10442;49.932;11.592;2023-11-18T00:12:36;6.53;;;3.87;;
20567;SDS011;10442;49.932;11.592;2023-11-18T00:15:09;5.13;;;4.10;;
20567;SDS011;10442;49.932;11.592;2023-11-18T00:17:38;4.73;;;4.20;;
20567;SDS011;10442;49.932;11.592;2023-11-18T00:20:06;4.40;;;3.90;;
20567;SDS011;10442;49.932;11.592;2023-11-18T00:22:39;4.17;;;3.70;;
20567;SDS011;10442;49.932;11.592;2023-11-18T00:25:08;3.50;;;3.20;;
20567;SDS011;10442;49.932;11.592;2023-11-18T00:27:36;5.67;;;4.80;;
20567;SDS011;10442;49.932;11.592;2023-11-18T00:30:04;3.97;;;3.67;;
20567;SDS011;10442;49.932;11.592;2023-11-18T00:32:32;4.57;;;4.07;;
20567;SDS011;10442;49.932;11.592;2023-11-18T00:35:00;4.30;;;3.90;;
20567;SDS011;10442;49.932;11.592;2023-11-18T00:37:31;6.23;;;3.87;;
20567;SDS011;10442;49.932;11.592;2023-11-18T00:39:59;3.70;;;3.40;;
20567;SDS011;10442;49.932;11.592;2023-11-18T00:42:27;3.80;;;3.50;;
20567;SDS011;10442;49.932;11.592;2023-11-18T00:44:54;3.27;;;2.93;;
20567;SDS011;10442;49.932;11.592;2023-11-18T00:47:22;2.83;;;2.63;;
20567;SDS011;10442;49.932;11.592;2023-11-18T00:49:50;3.70;;;3.43;;
20567;SDS011;10442;49.932;11.592;2023-11-18T00:52:19;4.10;;;3.70;;
20567;SDS011;10442;49.932;11.592;2023-11-18T00:54:46;6.30;;;3.97;;
20567;SDS011;10442;49.932;11.592;2023-11-18T00:57:14;4.47;;;4.00;;
20567;SDS011;10442;49.932;11.592;2023-11-18T00:59:42;3.53;;;3.20;;
20567;SDS011;10442;49.932;11.592;2023-11-18T01:02:10;3.53;;;3.23;;
20567;SDS011;10442;49.932;11.592;2023-11-18T01:04:38;4.13;;;3.67;;
20567;SDS011;10442;49.932;11.592;2023-11-18T01:07:05;4.23;;;3.83;;
20567;SDS011;10442;49.932;11.592;2023-11-18T01:09:33;4.07;;;3.67;;
20567;SDS011;10442;49.932;11.592;2023-11-18T01:12:05;5.13;;;4.60;;
20567;SDS011;10442;49.932;11.592;2023-11-18T01:14:36;3.93;;;3.63;;
20567;SDS011;10442;49.932;11.592;2023-11-18T01:17:06;4.43;;;4.03;;
20567;SDS011;10442;49.932;11.592;2023-11-18T01:19:34;4.87;;;3.83;;
20567;SDS011;10442;49.932;11.592;2023-11-18T01:22:02;5.07;;;4.57;;
20567;SDS011;10442;49.932;11.592;2023-11-18T01:24:33;4.83;;;4.33;;
20567;SDS011;10442;49.932;11.592;2023-11-18T01:27:02;5.83;;;5.17;;
20567;SDS011;10442;49.932;11.592;2023-11-18T01:29:30;4.00;;;3.53;;
20567;SDS011;10442;49.932;11.592;2023-11-18T01:31:58;5.50;;;4.03;;
20567;SDS011;10442;49.932;11.592;2023-11-18T01:34:26;5.57;;;4.10;;
20567;SDS011;10442;49.932;11.592;2023-11-18T01:36:55;5.70;;;4.63;;
20567;SDS011;10442;49.932;11.592;2023-11-18T01:39:24;4.93;;;4.53;;
20567;SDS011;10442;49.932;11.592;2023-11-18T01:41:53;7.00;;;4.47;;
20567;SDS011;10442;49.932;11.592;2023-11-18T01:44:22;6.53;;;4.53;;
20567;SDS011;10442;49.932;11.592;2023-11-18T01:46:50;5.13;;;3.90;;
20567;SDS011;10442;49.932;11.592;2023-11-18T01:49:18;4.33;;;3.80;;
20567;SDS011;10442;49.932;11.592;2023-11-18T01:51:47;4.03;;;3.67;;
20567;SDS011;10442;49.932;11.592;2023-11-18T01:54:19;4.30;;;3.60;;
20567;SDS011;10442;49.932;11.592;2023-11-18T01:56:49;7.40;;;4.00;;
20567;SDS011;10442;49.932;11.592;2023-11-18T01:59:16;4.90;;;4.50;;
20567;SDS011;10442;49.932;11.592;2023-11-18T02:01:48;5.30;;;4.47;;
20567;SDS011;10442;49.932;11.592;2023-11-18T02:04:21;3.93;;;3.53;;
20567;SDS011;10442;49.932;11.592;2023-11-18T02:06:49;6.40;;;5.50;;
20567;SDS011;10442;49.932;11.592;2023-11-18T02:09:18;4.20;;;3.27;;
20567;SDS011;10442;49.932;11.592;2023-11-18T02:14:43;3.80;;;3.50;;
20567;SDS011;10442;49.932;11.592;2023-11-18T02:17:13;4.67;;;3.73;;
20567;SDS011;10442;49.932;11.592;2023-11-18T02:19:42;4.93;;;4.53;;
20567;SDS011;10442;49.932;11.592;2023-11-18T02:22:09;6.03;;;3.93;;
20567;SDS011;10442;49.932;11.592;2023-11-18T02:24:38;4.27;;;3.83;;
20567;SDS011;10442;49.932;11.592;2023-11-18T02:27:08;4.03;;;3.57;;
20567;SDS011;10442;49.932;11.592;2023-11-18T02:29:39;4.57;;;3.87;;
20567;SDS011;10442;49.932;11.592;2023-11-18T02:32:20;4.20;;;3.80;;
20567;SDS011;10442;49.932;11.592;2023-11-18T02:37:42;4.13;;;3.13;;
20567;SDS011;10442;49.932;11.592;2023-11-18T02:40:16;3.77;;;3.00;;
20567;SDS011;10442;49.932;11.592;2023-11-18T02:42:53;6.17;;;3.63;;
20567;SDS011;10442;49.932;11.592;2023-11-18T02:45:22;4.17;;;3.63;;
20567;SDS011;10442;49.932;11.592;2023-11-18T02:47:50;4.13;;;3.73;;
20567;SDS011;10442;49.932;11.592;2023-11-18T02:50:18;3.00;;;2.60;;
20567;SDS011;10442;49.932;11.592;2023-11-18T02:52:47;4.00;;;2.93;;
20567;SDS011;10442;49.932;11.592;2023-11-18T02:55:16;3.67;;;3.33;;
20567;SDS011;10442;49.932;11.592;2023-11-18T02:57:43;3.30;;;3.00;;
20567;SDS011;10442;49.932;11.592;2023-11-18T03:00:12;4.97;;;3.43;;
20567;SDS011;10442;49.932;11.592;2023-11-18T03:02:51;3.63;;;3.40;;
20567;SDS011;10442;49.932;11.592;2023-11-18T03:05:20;3.00;;;2.70;;
20567;SDS011;10442;49.932;11.592;2023-11-18T03:07:48;3.37;;;3.00;;
20567;SDS011;10442;49.932;11.592;2023-11-18T03:10:21;2.93;;;2.60;;
20567;SDS011;10442;49.932;11.592;2023-11-18T03:12:51;2.97;;;2.77;;
20567;SDS011;10442;49.932;11.592;2023-11-18T03:15:21;4.17;;;3.10;;
20567;SDS011;10442;49.932;11.592;2023-11-18T03:17:51;3.23;;;2.93;;
20567;SDS011;10442;49.932;11.592;2023-11-18T03:20:20;3.57;;;3.03;;
20567;SDS011;10442;49.932;11.592;2023-11-18T03:22:50;5.67;;;3.10;;
20567;SDS011;10442;49.932;11.592;2023-11-18T03:25:20;5.20;;;2.80;;
20567;SDS011;10442;49.932;11.592;2023-11-18T03:27:50;2.93;;;2.63;;
20567;SDS011;10442;49.932;11.592;2023-11-18T03:30:21;2.80;;;2.60;;
20567;SDS011;10442;49.932;11.592;2023-11-18T03:32:48;3.17;;;2.90;;
20567;SDS011;10442;49.932;11.592;2023-11-18T03:35:16;3.23;;;3.03;;
20567;SDS011;10442;49.932;11.592;2023-11-18T03:37:43;2.77;;;2.57;;
20567;SDS011;10442;49.932;11.592;2023-11-18T03:40:12;4.93;;;3.10;;
20567;SDS011;10442;49.932;11.592;2023-11-18T03:42:41;4.13;;;3.73;;
20567;SDS011;10442;49.932;11.592;2023-11-18T03:45:09;4.07;;;3.10;;
20567;SDS011;10442;49.932;11.592;2023-11-18T03:47:37;3.93;;;2.63;;
20567;SDS011;10442;49.932;11.592;2023-11-18T03:50:05;4.57;;;2.77;;
20567;SDS011;10442;49.932;11.592;2023-11-18T03:52:36;5.50;;;3.17;;
20567;SDS011;10442;49.932;11.592;2023-11-18T03:55:05;2.73;;;2.23;;
20567;SDS011;10442;49.932;11.592;2023-11-18T03:57:33;3.27;;;2.97;;
20567;SDS011;10442;49.932;11.592;2023-11-18T04:00:01;3.47;;;3.17;;
20567;SDS011;10442;49.932;11.592;2023-11-18T04:02:36;2.70;;;2.50;;
20567;SDS011;10442;49.932;11.592;2023-11-18T04:05:04;3.27;;;2.77;;
20567;SDS011;10442;49.932;11.592;2023-11-18T04:07:32;3.60;;;3.30;;
20567;SDS011;10442;49.932;11.592;2023-11-18T04:10:00;3.23;;;2.93;;
20567;SDS011;10442;49.932;11.592;2023-11-18T04:12:28;3.23;;;2.93;;
20567;SDS011;10442;49.932;11.592;2023-11-18T04:14:57;4.80;;;3.10;;
20567;SDS011;10442;49.932;11.592;2023-11-18T04:17:24;2.60;;;2.40;;
20567;SDS011;10442;49.932;11.592;2023-11-18T04:19:54;3.53;;;3.07;;
20567;SDS011;10442;49.932;11.592;2023-11-18T04:22:23;3.97;;;2.93;;
20567;SDS011;10442;49.932;11.592;2023-11-18T04:24:50;3.20;;;2.90;;
20567;SDS011;10442;49.932;11.592;2023-11-18T04:27:18;4.70;;;2.40;;
20567;SDS011;10442;49.932;11.592;2023-11-18T04:29:45;2.93;;;2.70;;
20567;SDS011;10442;49.932;11.592;2023-11-18T04:32:13;3.57;;;3.00;;
20567;SDS011;10442;49.932;11.592;2023-11-18T04:34:40;2.97;;;2.73;;
20567;SDS011;10442;49.932;11.592;2023-11-18T04:37:09;5.40;;;3.67;;
20567;SDS011;10442;49.932;11.592;2023-11-18T04:39:36;5.67;;;3.57;;
20567;SDS011;10442;49.932;11.592;2023-11-18T04:42:04;2.70;;;2.50;;
20567;SDS011;10442;49.932;11.592;2023-11-18T04:44:31;3.07;;;2.60;;
20567;SDS011;10442;49.932;11.592;2023-11-18T04:46:59;2.90;;;2.70;;
20567;SDS011;10442;49.932;11.592;2023-11-18T04:49:28;3.93;;;2.53;;
20567;SDS011;10442;49.932;11.592;2023-11-18T04:51:56;2.80;;;2.20;;
20567;SDS011;10442;49.932;11.592;2023-11-18T04:54:26;4.23;;;2.93;;
20567;SDS011;10442;49.932;11.592;2023-11-18T04:56:53;2.87;;;2.50;;
20567;SDS011;10442;49.932;11.592;2023-11-18T04:59:21;2.50;;;2.30;;
20567;SDS011;10442;49.932;11.592;2023-11-18T05:01:49;3.07;;;2.73;;
20567;SDS011;10442;49.932;11.592;2023-11-18T05:04:20;3.00;;;2.80;;
20567;SDS011;10442;49.932;11.592;2023-11-18T05:06:47;3.53;;;2.63;;
20567;SDS011;10442;49.932;11.592;2023-11-18T05:09:15;4.80;;;2.57;;
20567;SDS011;10442;49.932;11.592;2023-11-18T05:11:45;3.03;;;2.50;;
20567;SDS011;10442;49.932;11.592;2023-11-18T05:14:13;5.27;;;2.50;;
20567;SDS011;10442;49.932;11.592;2023-11-18T05:16:43;2.50;;;2.30;;
20567;SDS011;10442;49.932;11.592;2023-11-18T05:19:11;3.87;;;3.23;;
20567;SDS011;10442;49.932;11.592;2023-11-18T05:21:38;3.10;;;2.80;;
20567;SDS011;10442;49.932;11.592;2023-11-18T05:24:06;3.17;;;2.73;;
20567;SDS011;10442;49.932;11.592;2023-11-18T05:26:34;3.30;;;3.00;;
20567;SDS011;10442;49.932;11.592;2023-11-18T05:29:01;2.77;;;2.47;;
20567;SDS011;10442;49.932;11.592;2023-11-18T05:31:29;3.37;;;3.07;;
20567;SDS011;10442;49.932;11.592;2023-11-18T05:33:58;3.43;;;2.80;;
20567;SDS011;10442;49.932;11.592;2023-11-18T05:36:26;2.90;;;2.67;;
20567;SDS011;10442;49.932;11.592;2023-11-18T05:38:55;3.00;;;2.80;;
20567;SDS011;10442;49.932;11.592;2023-11-18T05:41:22;3.83;;;3.50;;
20567;SDS011;10442;49.932;11.592;2023-11-18T05:43:57;2.97;;;2.57;;
20567;SDS011;10442;49.932;11.592;2023-11-18T05:46:25;4.40;;;3.73;;
20567;SDS011;10442;49.932;11.592;2023-11-18T05:48:56;2.87;;;2.50;;
20567;SDS011;10442;49.932;11.592;2023-11-18T05:51:25;3.87;;;3.57;;
20567;SDS011;10442;49.932;11.592;2023-11-18T05:53:53;4.37;;;3.77;;
20567;SDS011;10442;49.932;11.592;2023-11-18T05:56:22;5.37;;;4.13;;
20567;SDS011;10442;49.932;11.592;2023-11-18T05:58:51;4.17;;;2.43;;
20567;SDS011;10442;49.932;11.592;2023-11-18T06:01:20;8.33;;;3.93;;
20567;SDS011;10442;49.932;11.592;2023-11-18T06:03:48;4.70;;;3.43;;
20567;SDS011;10442;49.932;11.592;2023-11-18T06:06:17;3.87;;;3.47;;
20567;SDS011;10442;49.932;11.592;2023-11-18T06:08:50;5.10;;;3.03;;
20567;SDS011;10442;49.932;11.592;2023-11-18T06:11:19;4.30;;;3.73;;
20567;SDS011;10442;49.932;11.592;2023-11-18T06:13:48;4.63;;;3.40;;
20567;SDS011;10442;49.932;11.592;2023-11-18T06:16:21;4.37;;;2.87;;
20567;SDS011;10442;49.932;11.592;2023-11-18T06:18:51;3.57;;;2.90;;
20567;SDS011;10442;49.932;11.592;2023-11-18T06:21:21;3.20;;;2.67;;
20567;SDS011;10442;49.932;11.592;2023-11-18T06:23:52;4.60;;;3.83;;
20567;SDS011;10442;49.932;11.592;2023-11-18T06:26:22;3.70;;;2.90;;
20567;SDS011;10442;49.932;11.592;2023-11-18T06:28:54;3.97;;;2.73;;
20567;SDS011;10442;49.932;11.592;2023-11-18T06:31:23;4.50;;;3.77;;
20567;SDS011;10442;49.932;11.592;2023-11-18T06:33:51;4.67;;;2.93;;
20567;SDS011;10442;49.932;11.592;2023-11-18T06:36:19;4.00;;;2.97;;
20567;SDS011;10442;49.932;11.592;2023-11-18T06:38:49;4.07;;;3.67;;
20567;SDS011;10442;49.932;11.592;2023-11-18T06:41:17;3.77;;;3.47;;
20567;SDS011;10442;49.932;11.592;2023-11-18T06:43:46;7.30;;;3.30;;
20567;SDS011;10442;49.932;11.592;2023-11-18T06:46:30;5.10;;;4.40;;
20567;SDS011;10442;49.932;11.592;2023-11-18T06:49:01;8.07;;;4.57;;
20567;SDS011;10442;49.932;11.592;2023-11-18T06:51:35;5.60;;;3.57;;
20567;SDS011;10442;49.932;11.592;2023-11-18T06:54:05;4.37;;;3.90;;
20567;SDS011;10442;49.932;11.592;2023-11-18T06:56:41;3.07;;;2.70;;
20567;SDS011;10442;49.932;11.592;2023-11-18T06:59:12;5.47;;;2.80;;
20567;SDS011;10442;49.932;11.592;2023-11-18T07:01:42;4.50;;;3.27;;
20567;SDS011;10442;49.932;11.592;2023-11-18T07:04:12;2.50;;;2.30;;
20567;SDS011;10442;49.932;11.592;2023-11-18T07:06:43;3.57;;;2.97;;
20567;SDS011;10442;49.932;11.592;2023-11-18T07:09:12;4.80;;;3.37;;
20567;SDS011;10442;49.932;11.592;2023-11-18T07:11:41;5.10;;;3.00;;
20567;SDS011;10442;49.932;11.592;2023-11-18T07:14:12;5.97;;;4.07;;
20567;SDS011;10442;49.932;11.592;2023-11-18T07:16:41;4.13;;;3.30;;
20567;SDS011;10442;49.932;11.592;2023-11-18T07:19:13;4.97;;;4.57;;
20567;SDS011;10442;49.932;11.592;2023-11-18T07:21:50;4.00;;;3.70;;
20567;SDS011;10442;49.932;11.592;2023-11-18T07:24:18;3.87;;;3.50;;
20567;SDS011;10442;49.932;11.592;2023-11-18T07:26:47;3.23;;;2.93;;
20567;SDS011;10442;49.932;11.592;2023-11-18T07:29:15;4.10;;;3.33;;
20567;SDS011;10442;49.932;11.592;2023-11-18T07:31:43;4.70;;;3.67;;
20567;SDS011;10442;49.932;11.592;2023-11-18T07:34:13;3.67;;;3.10;;
20567;SDS011;10442;49.932;11.592;2023-11-18T07:36:42;4.00;;;3.53;;
20567;SDS011;10442;49.932;11.592;2023-11-18T07:39:13;3.67;;;2.87;;
20567;SDS011;10442;49.932;11.592;2023-11-18T07:41:51;3.63;;;3.33;;
20567;SDS011;10442;49.932;11.592;2023-11-18T07:44:20;3.93;;;3.53;;
20567;SDS011;10442;49.932;11.592;2023-11-18T07:46:49;7.70;;;4.37;;
20567;SDS011;10442;49.932;11.592;2023-11-18T07:49:17;3.67;;;3.47;;
20567;SDS011;10442;49.932;11.592;2023-11-18T07:51:44;4.77;;;4.30;;
20567;SDS011;10442;49.932;11.592;2023-11-18T07:54:11;4.03;;;3.40;;
20567;SDS011;10442;49.932;11.592;2023-11-18T07:56:40;4.00;;;3.30;;
20567;SDS011;10442;49.932;11.592;2023-11-18T07:59:08;4.60;;;4.20;;
20567;SDS011;10442;49.932;11.592;2023-11-18T08:01:36;4.35;;;3.95;;
20567;SDS011;10442;49.932;11.592;2023-11-18T08:04:07;4.75;;;3.65;;
20567;SDS011;10442;49.932;11.592;2023-11-18T08:06:36;4.10;;;3.70;;
20567;SDS011;10442;49.932;11.592;2023-11-18T08:09:05;4.18;;;3.40;;
20567;SDS011;10442;49.932;11.592;2023-11-18T08:11:38;3.22;;;2.97;;
20567;SDS011;10442;49.932;11.592;2023-11-18T08:14:07;3.67;;;3.47;;
20567;SDS011;10442;49.932;11.592;2023-11-18T08:16:35;3.33;;;3.03;;
20567;SDS011;10442;49.932;11.592;2023-11-18T08:19:03;4.10;;;3.70;;
20567;SDS011;10442;49.932;11.592;2023-11-18T08:21:33;4.53;;;3.57;;
20567;SDS011;10442;49.932;11.592;2023-11-18T08:24:05;3.97;;;2.73;;
20567;SDS011;10442;49.932;11.592;2023-11-18T08:26:35;4.10;;;3.70;;
20567;SDS011;10442;49.932;11.592;2023-11-18T08:29:03;4.47;;;3.57;;
20567;SDS011;10442;49.932;11.592;2023-11-18T08:31:31;6.07;;;4.13;;
20567;SDS011;10442;49.932;11.592;2023-11-18T08:34:00;4.40;;;4.00;;
20567;SDS011;10442;49.932;11.592;2023-11-18T08:36:28;3.87;;;3.57;;
20567;SDS011;10442;49.932;11.592;2023-11-18T08:38:59;5.57;;;3.87;;
20567;SDS011;10442;49.932;11.592;2023-11-18T08:41:27;7.83;;;2.93;;
20567;SDS011;10442;49.932;11.592;2023-11-18T08:43:58;4.63;;;3.13;;
20567;SDS011;10442;49.932;11.592;2023-11-18T08:46:44;3.10;;;2.90;;
20567;SDS011;10442;49.932;11.592;2023-11-18T08:49:11;3.60;;;3.20;;
20567;SDS011;10442;49.932;11.592;2023-11-18T08:51:39;4.60;;;3.50;;
20567;SDS011;10442;49.932;11.592;2023-11-18T08:54:10;4.20;;;3.90;;
20567;SDS011;10442;49.932;11.592;2023-11-18T08:56:49;4.57;;;4.07;;
20567;SDS011;10442;49.932;11.592;2023-11-18T08:59:20;3.33;;;3.10;;
20567;SDS011;10442;49.932;11.592;2023-11-18T09:01:54;4.57;;;4.17;;
20567;SDS011;10442;49.932;11.592;2023-11-18T09:04:23;4.17;;;3.77;;
20567;SDS011;10442;49.932;11.592;2023-11-18T09:06:51;4.17;;;3.77;;
20567;SDS011;10442;49.932;11.592;2023-11-18T09:09:27;5.50;;;4.33;;
20567;SDS011;10442;49.932;11.592;2023-11-18T09:11:55;4.50;;;4.00;;
20567;SDS011;10442;49.932;11.592;2023-11-18T09:14:26;4.70;;;4.20;;
20567;SDS011;10442;49.932;11.592;2023-11-18T09:16:53;3.80;;;3.50;;
20567;SDS011;10442;49.932;11.592;2023-11-18T09:19:25;4.03;;;3.73;;
20567;SDS011;10442;49.932;11.592;2023-11-18T09:21:53;4.37;;;3.97;;
20567;SDS011;10442;49.932;11.592;2023-11-18T09:24:21;4.33;;;3.93;;
20567;SDS011;10442;49.932;11.592;2023-11-18T09:26:51;4.90;;;4.43;;
20567;SDS011;10442;49.932;11.592;2023-11-18T09:29:19;4.83;;;4.43;;
20567;SDS011;10442;49.932;11.592;2023-11-18T09:31:50;4.73;;;4.30;;
20567;SDS011;10442;49.932;11.592;2023-11-18T09:34:21;3.47;;;3.20;;
20567;SDS011;10442;49.932;11.592;2023-11-18T09:36:54;3.33;;;3.03;;
20567;SDS011;10442;49.932;11.592;2023-11-18T09:39:22;4.30;;;4.00;;
20567;SDS011;10442;49.932;11.592;2023-11-18T09:42:05;4.10;;;3.70;;
20567;SDS011;10442;49.932;11.592;2023-11-18T09:44:36;4.27;;;3.87;;
20567;SDS011;10442;49.932;11.592;2023-11-18T09:47:07;4.83;;;3.70;;
20567;SDS011;10442;49.932;11.592;2023-11-18T09:49:40;3.77;;;2.90;;
20567;SDS011;10442;49.932;11.592;2023-11-18T09:52:15;5.70;;;5.10;;
20567;SDS011;10442;49.932;11.592;2023-11-18T09:54:58;3.50;;;3.28;;
20567;SDS011;10442;49.932;11.592;2023-11-18T09:57:43;5.00;;;3.67;;
20567;SDS011;10442;49.932;11.592;2023-11-18T10:00:15;4.50;;;4.07;;
20567;SDS011;10442;49.932;11.592;2023-11-18T10:02:48;5.55;;;3.67;;
20567;SDS011;10442;49.932;11.592;2023-11-18T10:05:19;3.65;;;3.35;;
20567;SDS011;10442;49.932;11.592;2023-11-18T10:07:48;3.50;;;3.20;;
20567;SDS011;10442;49.932;11.592;2023-11-18T10:10:17;3.22;;;2.95;;
20567;SDS011;10442;49.932;11.592;2023-11-18T10:12:48;2.50;;;2.30;;
20567;SDS011;10442;49.932;11.592;2023-11-18T10:15:24;3.28;;;2.97;;
20567;SDS011;10442;49.932;11.592;2023-11-18T10:17:53;3.05;;;2.83;;
20567;SDS011;10442;49.932;11.592;2023-11-18T10:23:09;3.70;;;3.40;;
20567;SDS011;10442;49.932;11.592;2023-11-18T10:25:44;4.57;;;3.55;;
20567;SDS011;10442;49.932;11.592;2023-11-18T10:28:27;4.50;;;3.88;;
20567;SDS011;10442;49.932;11.592;2023-11-18T10:30:55;4.82;;;4.40;;
20567;SDS011;10442;49.932;11.592;2023-11-18T10:33:31;3.63;;;3.33;;
20567;SDS011;10442;49.932;11.592;2023-11-18T10:36:05;3.85;;;3.45;;
20567;SDS011;10442;49.932;11.592;2023-11-18T10:38:40;4.60;;;3.30;;
20567;SDS011;10442;49.932;11.592;2023-11-18T10:41:14;3.78;;;3.47;;
20567;SDS011;10442;49.932;11.592;2023-11-18T10:43:44;3.45;;;2.95;;
20567;SDS011;10442;49.932;11.592;2023-11-18T10:46:12;3.53;;;3.20;;
20567;SDS011;10442;49.932;11.592;2023-11-18T10:48:48;3.17;;;2.85;;
20567;SDS011;10442;49.932;11.592;2023-11-18T10:51:18;3.28;;;2.85;;
20567;SDS011;10442;49.932;11.592;2023-11-18T10:53:47;4.70;;;2.75;;
20567;SDS011;10442;49.932;11.592;2023-11-18T10:56:30;2.40;;;2.05;;
20567;SDS011;10442;49.932;11.592;2023-11-18T10:59:05;2.58;;;2.38;;
20567;SDS011;10442;49.932;11.592;2023-11-18T11:01:35;3.10;;;2.83;;
20567;SDS011;10442;49.932;11.592;2023-11-18T11:04:11;3.03;;;2.83;;
20567;SDS011;10442;49.932;11.592;2023-11-18T11:06:43;5.25;;;3.40;;
20567;SDS011;10442;49.932;11.592;2023-11-18T11:09:24;2.80;;;2.53;;
20567;SDS011;10442;49.932;11.592;2023-11-18T11:11:58;4.07;;;3.00;;
20567;SDS011;10442;49.932;11.592;2023-11-18T11:14:33;3.80;;;3.50;;
20567;SDS011;10442;49.932;11.592;2023-11-18T11:17:12;3.00;;;2.78;;
20567;SDS011;10442;49.932;11.592;2023-11-18T11:19:50;2.55;;;2.35;;
20567;SDS011;10442;49.932;11.592;2023-11-18T11:22:31;2.33;;;2.20;;
20567;SDS011;10442;49.932;11.592;2023-11-18T11:28:15;3.13;;;2.90;;
20567;SDS011;10442;49.932;11.592;2023-11-18T11:31:00;5.78;;;3.63;;
20567;SDS011;10442;49.932;11.592;2023-11-18T11:33:46;4.32;;;3.47;;
20567;SDS011;10442;49.932;11.592;2023-11-18T11:36:22;4.32;;;2.63;;
20567;SDS011;10442;49.932;11.592;2023-11-18T11:38:58;3.60;;;3.25;;
20567;SDS011;10442;49.932;11.592;2023-11-18T11:41:28;2.72;;;2.53;;
20567;SDS011;10442;49.932;11.592;2023-11-18T11:43:57;4.00;;;3.70;;
20567;SDS011;10442;49.932;11.592;2023-11-18T11:46:26;2.55;;;2.40;;
20567;SDS011;10442;49.932;11.592;2023-11-18T11:49:02;3.80;;;3.50;;
20567;SDS011;10442;49.932;11.592;2023-11-18T11:51:48;3.55;;;3.15;;
20567;SDS011;10442;49.932;11.592;2023-11-18T11:54:27;3.38;;;3.03;;
20567;SDS011;10442;49.932;11.592;2023-11-18T11:56:57;3.58;;;3.30;;
20567;SDS011;10442;49.932;11.592;2023-11-18T12:02:22;3.10;;;2.88;;
20567;SDS011;10442;49.932;11.592;2023-11-18T12:04:56;4.30;;;3.40;;
20567;SDS011;10442;49.932;11.592;2023-11-18T12:07:33;4.30;;;2.80;;
20567;SDS011;10442;49.932;11.592;2023-11-18T12:10:07;2.95;;;2.75;;
20567;SDS011;10442;49.932;11.592;2023-11-18T12:12:40;3.63;;;3.17;;
20567;SDS011;10442;49.932;11.592;2023-11-18T12:15:09;3.40;;;3.13;;
20567;SDS011;10442;49.932;11.592;2023-11-18T12:23:09;4.68;;;3.85;;
20567;SDS011;10442;49.932;11.592;2023-11-18T12:25:45;4.20;;;3.85;;
20567;SDS011;10442;49.932;11.592;2023-11-18T12:28:16;3.53;;;3.22;;
20567;SDS011;10442;49.932;11.592;2023-11-18T12:30:48;4.75;;;4.15;;
20567;SDS011;10442;49.932;11.592;2023-11-18T12:33:19;4.13;;;3.45;;
20567;SDS011;10442;49.932;11.592;2023-11-18T12:40:52;5.03;;;4.38;;
20567;SDS011;10442;49.932;11.592;2023-11-18T12:43:33;3.72;;;3.42;;
20567;SDS011;10442;49.932;11.592;2023-11-18T12:46:29;3.88;;;3.58;;
20567;SDS011;10442;49.932;11.592;2023-11-18T12:49:24;4.72;;;3.80;;
20567;SDS011;10442;49.932;11.592;2023-11-18T12:51:53;5.18;;;4.70;;
20567;SDS011;10442;49.932;11.592;2023-11-18T12:54:26;5.28;;;4.72;;
20567;SDS011;10442;49.932;11.592;2023-11-18T12:56:56;4.60;;;4.20;;
20567;SDS011;10442;49.932;11.592;2023-11-18T12:59:24;3.83;;;3.53;;
20567;SDS011;10442;49.932;11.592;2023-11-18T13:01:51;5.00;;;4.57;;
20567;SDS011;10442;49.932;11.592;2023-11-18T13:04:25;5.97;;;5.47;;
20567;SDS011;10442;49.932;11.592;2023-11-18T13:06:54;4.88;;;4.40;;
20567;SDS011;10442;49.932;11.592;2023-11-18T13:09:22;5.63;;;4.70;;
20567;SDS011;10442;49.932;11.592;2023-11-18T13:14:26;5.03;;;4.60;;
20567;SDS011;10442;49.932;11.592;2023-11-18T13:16:55;5.43;;;4.80;;
20567;SDS011;10442;49.932;11.592;2023-11-18T13:19:27;4.95;;;4.43;;
20567;SDS011;10442;49.932;11.592;2023-11-18T13:21:56;4.38;;;3.97;;
20567;SDS011;10442;49.932;11.592;2023-11-18T13:24:26;5.95;;;5.35;;
20567;SDS011;10442;49.932;11.592;2023-11-18T13:26:54;5.18;;;4.78;;
20567;SDS011;10442;49.932;11.592;2023-11-18T13:29:24;5.20;;;4.85;;
20567;SDS011;10442;49.932;11.592;2023-11-18T13:31:51;4.28;;;3.97;;
20567;SDS011;10442;49.932;11.592;2023-11-18T13:34:19;4.82;;;4.43;;
20567;SDS011;10442;49.932;11.592;2023-11-18T13:36:47;4.35;;;3.95;;
20567;SDS011;10442;49.932;11.592;2023-11-18T13:39:17;4.82;;;4.22;;
20567;SDS011;10442;49.932;11.592;2023-11-18T13:41:49;3.42;;;3.13;;
20567;SDS011;10442;49.932;11.592;2023-11-18T13:44:36;5.20;;;4.80;;
20567;SDS011;10442;49.932;11.592;2023-11-18T13:47:09;5.03;;;4.55;;
20567;SDS011;10442;49.932;11.592;2023-11-18T13:49:40;8.85;;;5.32;;
20567;SDS011;10442;49.932;11.592;2023-11-18T13:52:08;5.38;;;4.97;;
20567;SDS011;10442;49.932;11.592;2023-11-18T13:54:37;4.57;;;3.63;;
20567;SDS011;10442;49.932;11.592;2023-11-18T13:57:05;4.70;;;4.30;;
20567;SDS011;10442;49.932;11.592;2023-11-18T13:59:34;4.30;;;4.00;;
20567;SDS011;10442;49.932;11.592;2023-11-18T14:02:01;4.97;;;4.50;;
20567;SDS011;10442;49.932;11.592;2023-11-18T14:04:31;5.60;;;5.20;;
20567;SDS011;10442;49.932;11.592;2023-11-18T14:07:02;4.88;;;4.47;;
20567;SDS011;10442;49.932;11.592;2023-11-18T14:09:36;5.30;;;4.88;;
20567;SDS011;10442;49.932;11.592;2023-11-18T14:12:07;4.55;;;4.18;;
20567;SDS011;10442;49.932;11.592;2023-11-18T14:14:36;5.03;;;4.55;;
20567;SDS011;10442;49.932;11.592;2023-11-18T14:17:05;4.55;;;4.10;;
20567;SDS011;10442;49.932;11.592;2023-11-18T14:19:37;4.53;;;4.18;;
20567;SDS011;10442;49.932;11.592;2023-11-18T14:22:05;4.10;;;3.70;;
20567;SDS011;10442;49.932;11.592;2023-11-18T14:24:36;4.90;;;4.50;;
20567;SDS011;10442;49.932;11.592;2023-11-18T14:27:04;4.45;;;4.10;;
20567;SDS011;10442;49.932;11.592;2023-11-18T14:29:31;4.32;;;4.03;;
20567;SDS011;10442;49.932;11.592;2023-11-18T14:31:59;4.30;;;3.97;;
20567;SDS011;10442;49.932;11.592;2023-11-18T14:34:26;4.43;;;4.13;;
20567;SDS011;10442;49.932;11.592;2023-11-18T14:36:54;5.57;;;5.07;;
20567;SDS011;10442;49.932;11.592;2023-11-18T14:39:23;4.93;;;4.47;;
20567;SDS011;10442;49.932;11.592;2023-11-18T14:41:52;4.95;;;4.38;;
20567;SDS011;10442;49.932;11.592;2023-11-18T14:44:21;5.28;;;4.78;;
20567;SDS011;10442;49.932;11.592;2023-11-18T14:46:48;6.32;;;5.45;;
20567;SDS011;10442;49.932;11.592;2023-11-18T14:49:16;4.78;;;4.38;;
20567;SDS011;10442;49.932;11.592;2023-11-18T14:51:45;5.72;;;5.25;;
20567;SDS011;10442;49.932;11.592;2023-11-18T14:54:12;6.07;;;5.57;;
20567;SDS011;10442;49.932;11.592;2023-11-18T14:56:40;5.20;;;4.80;;
20567;SDS011;10442;49.932;11.592;2023-11-18T14:59:07;5.78;;;5.28;;
20567;SDS011;10442;49.932;11.592;2023-11-18T15:01:35;6.45;;;5.85;;
20567;SDS011;10442;49.932;11.592;2023-11-18T15:04:03;5.60;;;5.20;;
20567;SDS011;10442;49.932;11.592;2023-11-18T15:06:32;6.55;;;5.95;;
20567;SDS011;10442;49.932;11.592;2023-11-18T15:09:00;6.70;;;6.20;;
20567;SDS011;10442;49.932;11.592;2023-11-18T15:11:30;6.95;;;6.35;;
20567;SDS011;10442;49.932;11.592;2023-11-18T15:14:01;5.53;;;5.07;;
20567;SDS011;10442;49.932;11.592;2023-11-18T15:16:29;7.75;;;6.93;;
20567;SDS011;10442;49.932;11.592;2023-11-18T15:18:57;6.75;;;5.50;;